Flight Track Log - Related Links

Times and Time Zones

All times are in EDT time to prevent confusion due to time zone crossing. See the SWA4132 flight status page for this flight to view local times or setup timezone preferences in your user account.


Time Position Orientation Groundspeed Altitude Reporting Facility
EDT Latitude Longitude Course Direction KTS MPH feet Rate Location/Type
Fri 02:06:10 PM 36.0767 -115.1706 279° West 157 181 3,000  Level Los Angeles Center
Fri 02:07:42 PM 36.0903 -115.2833 279° West 253 291 6,500 2,400 Climbing Los Angeles Center
Fri 02:08:05 PM 36.1167 -115.2919 345° North 252 290 7,600 2,894 Climbing Los Angeles Center
Fri 02:09:07 PM 36.1725 -115.2483 32° Northeast 269 310 10,600 2,081 Climbing Los Angeles Center
Fri 02:10:09 PM 36.1958 -115.1386 75° East 326 375 11,900 1,920 Climbing Los Angeles Center
Fri 02:11:12 PM 36.1975 -115.0156 89° East 355 409 14,600 2,592 Climbing Los Angeles Center
Fri 02:12:14 PM 36.1994 -114.8839 89° East 369 425 17,300 2,419 Climbing Los Angeles Center
Fri 02:13:16 PM 36.2003 -114.7389 90° East 390 449 19,600 2,226 Climbing Los Angeles Center
Fri 02:14:18 PM 36.1981 -114.5981 91° East 406 467 21,900 2,081 Climbing Los Angeles Center
Fri 02:15:20 PM 36.1961 -114.4531 91° East 416 479 23,900 1,742 Climbing Los Angeles Center
Fri 02:16:22 PM 36.1944 -114.3031 91° East 431 496 25,500 1,500 Climbing Los Angeles Center
Fri 02:17:24 PM 36.2044 -114.1447 85° East 466 536 27,000 1,500 Climbing Los Angeles Center
Fri 02:18:26 PM 36.2239 -113.9878 81° East 465 535 28,600 1,536 Climbing Los Angeles Center
Fri 02:19:29 PM 36.2889 -113.8089 66° East 473 544 30,200 1,488 Climbing Los Angeles Center
Fri 02:20:31 PM 36.3450 -113.6594 65° Northeast 476 548 31,700 1,403 Climbing Los Angeles Center
Fri 02:21:33 PM 36.4028 -113.5089 64° Northeast 484 557 33,100 1,258 Climbing Los Angeles Center
Fri 02:22:35 PM 36.4608 -113.3578 64° Northeast 484 557 34,300 1,258 Climbing Los Angeles Center
Fri 02:23:37 PM 36.5247 -113.1897 65° Northeast 484 557 35,700 1,306 Climbing Los Angeles Center
Fri 02:24:39 PM 36.5803 -113.0389 65° Northeast 483 556 37,000 629 Climbing Los Angeles Center
Fri 02:25:41 PM 36.6358 -112.8919 65° Northeast 476 548 37,000  Level Los Angeles Center
Fri 02:26:43 PM 36.6925 -112.7428 65° Northeast 477 549 37,000  Level Los Angeles Center
Fri 02:27:46 PM 36.7469 -112.5933 66° East 477 549 37,000  Level Los Angeles Center
Fri 02:28:48 PM 36.8133 -112.4139 65° Northeast 478 550 37,000  Level Los Angeles Center
Fri 02:29:50 PM 36.8681 -112.2636 65° Northeast 478 550 37,000  Level Los Angeles Center
Fri 02:30:52 PM 36.9231 -112.1142 65° Northeast 478 550 37,000  Level Los Angeles Center
Fri 02:31:54 PM 36.9775 -111.9622 66° East 478 550 37,000  Level Los Angeles Center
Fri 02:32:56 PM 37.0333 -111.8119 65° Northeast 478 550 37,000  Level Los Angeles Center
Fri 02:33:58 PM 37.0975 -111.6286 66° East 479 551 37,000  Level Los Angeles Center
Fri 02:35:00 PM 37.1553 -111.4753 65° Northeast 484 557 37,000  Level Los Angeles Center
Fri 02:36:03 PM 37.2081 -111.3239 66° East 481 554 37,000  Level Los Angeles Center
Fri 02:37:05 PM 37.2683 -111.1761 63° Northeast 479 551 37,000  Level Los Angeles Center
Fri 02:38:30 PM 37.3517 -110.9681 63° Northeast 478 550 37,000  Level Denver Center
Fri 02:39:32 PM 37.4222 -110.7917 63° Northeast 476 548 37,000  Level Denver Center
Fri 02:40:34 PM 37.4822 -110.6431 63° Northeast 476 548 37,000  Level Denver Center
Fri 02:41:36 PM 37.5442 -110.4878 63° Northeast 478 550 37,000  Level Denver Center
Fri 02:42:38 PM 37.6006 -110.3442 64° Northeast 479 551 37,000  Level Denver Center
Fri 02:43:41 PM 37.6681 -110.1747 63° Northeast 481 554 37,000  Level Denver Center
Fri 02:44:43 PM 37.7253 -110.0286 64° Northeast 482 555 37,000  Level Denver Center
Fri 02:45:45 PM 37.7858 -109.8550 66° East 483 556 37,000  Level Denver Center
Fri 02:46:47 PM 37.8358 -109.7064 67° East 481 554 37,000  Level Denver Center
Fri 02:47:49 PM 37.8936 -109.5303 67° East 482 555 37,000  Level Denver Center
Fri 02:48:51 PM 37.9436 -109.3806 67° East 482 555 37,000  Level Denver Center
Fri 02:49:53 PM 38.0003 -109.2047 68° East 483 556 37,000  Level Denver Center
Fri 02:50:55 PM 38.0483 -109.0531 68° East 483 556 37,000  Level Denver Center
Fri 02:51:57 PM 38.1003 -108.8917 68° East 488 562 37,000  Level Denver Center
Fri 02:53:00 PM 38.1503 -108.7364 68° East 480 552 37,000  Level Denver Center
Fri 02:54:02 PM 38.1997 -108.5811 68° East 480 552 37,000  Level Denver Center
Fri 02:55:04 PM 38.2594 -108.3936 68° East 480 552 37,000  Level Denver Center
Fri 02:56:06 PM 38.3092 -108.2361 68° East 481 554 37,000  Level Denver Center
Fri 02:57:08 PM 38.3589 -108.0772 68° East 481 554 37,000 -387 Level Denver Center
Fri 02:58:10 PM 38.4086 -107.9186 68° East 482 555 36,200 -968 Descending Denver Center
Fri 02:59:12 PM 38.4578 -107.7594 68° East 483 556 35,000 -581 Descending Denver Center
Fri 03:00:14 PM 38.5167 -107.5711 68° East 482 555 35,000 -48 Level Denver Center
Fri 03:01:16 PM 38.5631 -107.4147 69° East 480 552 34,900 -432 Descending Denver Center
Fri 03:02:19 PM 38.6103 -107.2592 69° East 476 548 34,100 -816 Descending Denver Center
Fri 03:03:21 PM 38.6567 -107.1053 69° East 472 543 33,200 -871 Descending Denver Center
Fri 03:04:23 PM 38.7017 -106.9533 69° East 466 536 32,300 -919 Descending Denver Center
Fri 03:05:25 PM 38.7464 -106.8044 69° East 455 524 31,300 -1,452 Descending Denver Center
Fri 03:06:27 PM 38.7994 -106.6275 69° East 449 517 29,300 -1,597 Descending Denver Center
Fri 03:07:29 PM 38.8419 -106.4800 70° East 447 514 28,000 -629 Descending Denver Center
Fri 03:08:31 PM 38.8828 -106.3389 70° East 430 495 28,000  Level Denver Center
Fri 03:09:33 PM 38.9197 -106.1944 72° East 427 491 28,000  Level Denver Center
Fri 03:10:35 PM 38.9442 -106.0217 80° East 425 489 28,000  Level Denver Center
Fri 03:11:37 PM 38.9794 -105.8783 72° East 425 489 28,000  Level Denver Center
Fri 03:12:40 PM 39.0194 -105.7344 70° East 425 489 28,000 -432 Level Denver Center
Fri 03:13:42 PM 39.0561 -105.5889 72° East 430 495 27,100 -1,113 Descending Denver Center
Fri 03:14:44 PM 39.0936 -105.4461 71° East 427 491 25,700 -1,645 Descending Denver Center
Fri 03:15:46 PM 39.1378 -105.2808 71° East 414 476 23,700 -1,984 Descending Denver Center
Fri 03:16:48 PM 39.1808 -105.1614 65° Northeast 381 438 21,600 -1,984 Descending Denver Center
Fri 03:17:50 PM 39.2322 -105.0369 62° Northeast 378 435 19,600 -1,645 Descending Denver Center
Fri 03:18:52 PM 39.2803 -104.9231 61° Northeast 365 420 18,200 -1,355 Descending Denver Center
Fri 03:19:54 PM 39.3444 -104.8186 52° Northeast 346 398 16,800 -1,065 Descending Denver Center
Fri 03:20:56 PM 39.4042 -104.7311 49° Northeast 328 377 16,000 -823 Descending Denver Center
Fri 03:21:58 PM 39.4653 -104.6361 50° Northeast 325 374 15,100 -1,200 Descending Denver Center
Fri 03:23:01 PM 39.5450 -104.6692 342° North 312 359 13,500 -1,008 Descending Denver Center
Fri 03:24:03 PM 39.6258 -104.7303 330° Northwest 312 359 13,000 -242 Descending Denver Center
Fri 03:25:05 PM 39.7003 -104.7867 330° Northwest 308 354 13,000 -290 Level Denver Center
Fri 03:26:07 PM 39.7747 -104.8314 335° Northwest 300 345 12,400 -726 Descending Denver Center
Fri 03:27:09 PM 39.8589 -104.8336 359° North 282 325 11,500 -919 Descending Denver Center
Fri 03:28:11 PM 39.9317 -104.8342 360° North 260 299 10,500 -960 Descending Denver Center
Fri 03:29:14 PM 40.0089 -104.8372 358° North 257 296 9,500 -1,056 Descending Denver Center
Fri 03:30:16 PM 40.0794 -104.8403 358° North 254 292 8,300 -726 Descending Denver Center
Fri 03:31:18 PM 40.1011 -104.7697 68° East 241 277 8,000 -242 Descending Denver Center
Fri 03:32:20 PM 40.0408 -104.7286 152° Southeast 229 264 7,800 -387 Descending Denver Center
Fri 03:33:22 PM 39.9925 -104.6992 155° Southeast 193 222 7,200 -774 Descending Denver Center
Fri 03:34:24 PM 39.9439 -104.6956 177° South 164 189 6,200 -823 Descending Denver Center
Fri 03:35:26 PM 39.8989 -104.6961 181° South 163 188 5,500 -677 Descending Denver Center
Fri 03:37:00 PM 39.8617 -104.6732 155° Southeast  Level Estimated

Login

Don't have an account? Register now (free) for customized features, flight alerts, and more!